Time;durP1;ratioP1;P1;durP2;ratioP2;P2;SDS_P1;SDS_P2;PMS_P1;PMS_P2;Temp;Humidity;BMP_temperature;BMP_pressure;BME280_temperature;BME280_humidity;BME280_pressure;Samples;Min_cycle;Max_cycle;Signal;HPM_P1;HPM_P2
2022/01/26 00:07:49;;;;;;;;;;;;;;;7.21;54.80;100202.28;4508666;31;33149;-86
2022/01/26 00:10:17;;;;;;;;;;;;;;;6.02;58.11;100205.50;4498903;31;34656;-86
2022/01/26 00:12:44;;;;;;;;;;;;;;;6.60;56.55;100205.66;4499280;31;34388;-86
2022/01/26 00:15:11;;;;;;;;;;;;;;;5.54;59.92;100215.16;4513866;31;33827;-86
2022/01/26 00:17:39;;;;;;;;;;;;;;;6.29;57.71;100211.09;4501932;31;34016;-85
2022/01/26 00:22:55;;;;;;;;;;;;;;;6.73;55.76;100200.22;4499352;31;34285;-85
2022/01/26 00:28:07;;;;;;;;;;;;;;;6.65;56.47;100204.16;4511126;31;33279;-85
2022/01/26 00:38:58;;;;;;;;;;;;;;;7.21;54.93;100207.44;4481968;31;33112;-85
2022/01/26 00:41:37;;;;;;;;;;;;;;;6.85;55.83;100204.16;4481910;31;34202;-85
2022/01/26 00:44:06;;;;;;;;;;;;;;;8.36;51.36;100202.63;4482416;31;33566;-85
2022/01/26 00:46:34;;;;;;;;;;;;;;;8.56;50.71;100198.28;4480224;31;34039;-85
2022/01/26 00:49:02;;;;;;;;;;;;;;;8.19;51.46;100204.59;4480104;31;32061;-85
2022/01/26 00:51:29;;;;;;;;;;;;;;;8.23;51.20;100200.44;4480239;32;34110;-85
2022/01/26 00:54:05;;;;;;;;;;;;;;;8.49;50.48;100197.16;4481719;31;34000;-84
2022/01/26 00:56:32;;;;;;;;;;;;;;;7.60;52.96;100210.81;4483935;31;35019;-85
2022/01/26 00:59:00;;;;;;;;;;;;;;;8.64;50.16;100199.44;4481861;31;33713;-84
2022/01/26 01:01:28;;;;;;;;;;;;;;;8.77;49.17;100204.22;4489092;31;35162;-85
2022/01/26 01:03:55;;;;;;;;;;;;;;;8.77;49.68;100193.88;4510250;31;34002;-86
2022/01/26 01:06:26;;;;;;;;;;;;;;;7.87;52.02;100203.31;4502376;31;34267;-86
2022/01/26 01:08:56;;;;;;;;;;;;;;;7.72;52.49;100195.81;4512031;31;33159;-85
2022/01/26 01:11:24;;;;;;;;;;;;;;;7.75;52.17;100195.94;4505906;31;33537;-86
2022/01/26 01:13:52;;;;;;;;;;;;;;;7.09;54.04;100194.91;4507456;31;34360;-86
2022/01/26 01:16:21;;;;;;;;;;;;;;;6.78;55.05;100203.91;4498249;31;33993;-86
2022/01/26 01:19:31;;;;;;;;;;;;;;;7.33;53.71;100195.06;4512420;31;32956;-86
2022/01/26 01:29:27;;;;;;;;;;;;;;;5.65;58.36;100208.88;4510497;31;32998;-85
2022/01/26 01:31:58;;;;;;;;;;;;;;;6.36;56.58;100199.34;4498791;31;33860;-83
2022/01/26 01:34:28;;;;;;;;;;;;;;;6.71;55.66;100194.13;4510379;31;33941;-84
2022/01/26 01:37:02;;;;;;;;;;;;;;;6.68;55.60;100188.81;4498480;31;34160;-85
2022/01/26 01:39:30;;;;;;;;;;;;;;;6.79;55.35;100197.91;4512035;31;31809;-84
2022/01/26 01:41:57;;;;;;;;;;;;;;;7.23;54.06;100195.50;4511557;31;35443;-85
2022/01/26 01:44:24;;;;;;;;;;;;;;;6.90;54.86;100194.94;4510250;31;33942;-84
2022/01/26 01:46:52;;;;;;;;;;;;;;;7.61;53.11;100191.91;4498423;31;32693;-85
2022/01/26 01:49:20;;;;;;;;;;;;;;;7.78;52.30;100184.88;4505039;31;34255;-84
2022/01/26 01:52:01;;;;;;;;;;;;;;;6.56;56.04;100196.87;4514030;31;33877;-85
2022/01/26 01:54:29;;;;;;;;;;;;;;;7.52;53.05;100189.84;4507577;31;34347;-83
2022/01/26 01:56:58;;;;;;;;;;;;;;;8.19;51.37;100183.94;4512489;31;33728;-85
2022/01/26 01:59:26;;;;;;;;;;;;;;;7.13;54.29;100195.94;4513917;31;32679;-86
2022/01/26 02:01:53;;;;;;;;;;;;;;;6.80;55.18;100193.63;4514287;31;34125;-86
2022/01/26 02:04:21;;;;;;;;;;;;;;;6.30;56.31;100198.28;4504696;31;34080;-86
2022/01/26 02:06:48;;;;;;;;;;;;;;;6.76;55.63;100197.78;4500569;31;34512;-86
2022/01/26 02:09:15;;;;;;;;;;;;;;;7.50;53.20;100188.03;4500683;31;34034;-86
2022/01/26 02:11:47;;;;;;;;;;;;;;;8.09;51.70;100192.13;4504071;31;34031;-86
2022/01/26 02:14:22;;;;;;;;;;;;;;;8.38;50.55;100180.38;4516290;31;34066;-86
2022/01/26 02:49:46;;;;;;;;;;;;;;;8.32;50.42;100174.06;4508946;31;34210;-86
2022/01/26 02:57:41;;;;;;;;;;;;;;;5.54;57.93;100169.75;4513280;31;34184;-86
2022/01/26 03:02:50;;;;;;;;;;;;;;;7.25;53.13;100163.78;4499906;31;33189;-86
2022/01/26 03:05:20;;;;;;;;;;;;;;;6.95;53.87;100160.78;4503092;31;34215;-85
2022/01/26 03:07:58;;;;;;;;;;;;;;;7.22;52.89;100160.22;4515652;31;34641;-85
2022/01/26 03:13:04;;;;;;;;;;;;;;;6.72;54.54;100154.66;4511012;31;33086;-86
2022/01/26 03:15:43;;;;;;;;;;;;;;;8.04;50.84;100144.59;4510080;31;35166;-85
2022/01/26 03:21:10;;;;;;;;;;;;;;;8.18;49.90;100127.94;4499757;31;34836;-85
2022/01/26 03:29:14;;;;;;;;;;;;;;;7.51;51.86;100148.53;4499811;31;34841;-86
2022/01/26 03:34:19;;;;;;;;;;;;;;;7.02;52.94;100155.09;4515450;31;32895;-86
2022/01/26 03:36:55;;;;;;;;;;;;;;;7.26;52.27;100157.81;4515110;31;34138;-86
2022/01/26 03:39:24;;;;;;;;;;;;;;;7.72;50.96;100153.66;4505860;31;35092;-86
2022/01/26 03:42:02;;;;;;;;;;;;;;;7.98;50.33;100157.25;4510461;31;34035;-87
2022/01/26 03:44:29;;;;;;;;;;;;;;;8.33;49.43;100150.84;4504240;31;33060;-85
2022/01/26 03:46:57;;;;;;;;;;;;;;;8.41;49.23;100153.75;4515131;31;32745;-85
2022/01/26 03:49:24;;;;;;;;;;;;;;;9.55;46.25;100143.09;4512860;31;34074;-85
2022/01/26 03:51:51;;;;;;;;;;;;;;;9.50;46.27;100151.53;4514886;31;33752;-85
2022/01/26 03:54:20;;;;;;;;;;;;;;;9.48;46.36;100154.94;4515449;31;33881;-85
2022/01/26 03:56:47;;;;;;;;;;;;;;;9.59;46.04;100156.16;4500953;31;34027;-85
2022/01/26 03:59:14;;;;;;;;;;;;;;;9.67;45.78;100149.53;4511858;31;34104;-86
2022/01/26 04:01:42;;;;;;;;;;;;;;;9.33;46.49;100163.06;4499492;31;33885;-85
2022/01/26 04:04:09;;;;;;;;;;;;;;;8.61;48.42;100163.13;4499637;31;34370;-86
2022/01/26 04:06:37;;;;;;;;;;;;;;;9.44;46.44;100155.66;4499574;31;34853;-85
2022/01/26 04:09:10;;;;;;;;;;;;;;;9.64;45.57;100154.59;4501007;31;34784;-85
2022/01/26 04:11:44;;;;;;;;;;;;;;;9.84;45.52;100151.75;4513261;31;35800;-86
2022/01/26 04:14:14;;;;;;;;;;;;;;;10.23;44.26;100142.63;4504653;31;34288;-85
2022/01/26 04:16:43;;;;;;;;;;;;;;;10.49;44.01;100145.09;4515220;31;34388;-85
2022/01/26 04:19:10;;;;;;;;;;;;;;;10.43;43.61;100144.94;4512639;31;34247;-85
2022/01/26 04:24:36;;;;;;;;;;;;;;;9.81;45.40;100149.06;4498688;31;33571;-85
2022/01/26 04:27:13;;;;;;;;;;;;;;;10.38;44.15;100137.03;4513553;31;34921;-85
2022/01/26 04:29:41;;;;;;;;;;;;;;;10.90;42.88;100147.97;4509920;31;34808;-84
2022/01/26 04:32:09;;;;;;;;;;;;;;;10.94;42.20;100145.50;4506997;31;34881;-85
2022/01/26 04:34:36;;;;;;;;;;;;;;;10.57;42.55;100138.44;4505371;31;34010;-85
2022/01/26 04:39:44;;;;;;;;;;;;;;;11.20;40.98;100128.03;4501496;31;34470;-85
2022/01/26 04:42:20;;;;;;;;;;;;;;;11.37;40.51;100131.06;4511568;31;33970;-85
2022/01/26 04:44:58;;;;;;;;;;;;;;;11.55;40.12;100135.81;4509360;31;33252;-85
2022/01/26 04:47:25;;;;;;;;;;;;;;;11.47;39.65;100137.34;4514955;31;35057;-85
2022/01/26 04:49:52;;;;;;;;;;;;;;;11.22;39.56;100141.06;4509584;31;34517;-84
2022/01/26 04:52:20;;;;;;;;;;;;;;;11.39;39.33;100134.56;4503882;31;34385;-85
2022/01/26 04:54:47;;;;;;;;;;;;;;;11.46;39.22;100138.19;4514028;31;33196;-84
2022/01/26 04:57:14;;;;;;;;;;;;;;;11.19;39.01;100136.66;4515037;31;34015;-84
2022/01/26 04:59:42;;;;;;;;;;;;;;;11.17;39.01;100133.16;4513428;31;35332;-85
2022/01/26 05:02:09;;;;;;;;;;;;;;;11.38;38.90;100122.44;4500972;31;34262;-84
2022/01/26 05:04:37;;;;;;;;;;;;;;;11.44;38.77;100121.72;4505472;31;33491;-85
2022/01/26 05:07:04;;;;;;;;;;;;;;;11.53;38.27;100131.44;4514847;31;35205;-85
2022/01/26 05:09:31;;;;;;;;;;;;;;;11.40;38.35;100125.03;4510570;31;35274;-85
2022/01/26 05:12:01;;;;;;;;;;;;;;;11.38;38.39;100124.16;4508692;31;34492;-85
2022/01/26 05:14:28;;;;;;;;;;;;;;;11.10;38.58;100128.66;4512801;31;33662;-85
2022/01/26 05:16:56;;;;;;;;;;;;;;;11.17;38.63;100133.16;4514875;31;34265;-85
2022/01/26 05:19:23;;;;;;;;;;;;;;;11.16;38.56;100127.91;4508326;31;34413;-85
2022/01/26 05:21:51;;;;;;;;;;;;;;;11.28;38.25;100125.63;4510365;31;34138;-85
2022/01/26 05:24:19;;;;;;;;;;;;;;;11.18;38.35;100121.06;4506872;31;33300;-85
2022/01/26 05:26:46;;;;;;;;;;;;;;;11.34;38.19;100120.59;4500598;31;34997;-86
2022/01/26 05:29:13;;;;;;;;;;;;;;;11.04;38.63;100125.00;4499082;31;34172;-85
2022/01/26 05:31:41;;;;;;;;;;;;;;;10.82;38.97;100129.63;4507233;31;34990;-85
2022/01/26 05:34:08;;;;;;;;;;;;;;;10.74;39.43;100125.06;4500913;31;33532;-84
2022/01/26 05:36:35;;;;;;;;;;;;;;;11.08;38.92;100119.94;4500767;31;34123;-85
2022/01/26 05:39:03;;;;;;;;;;;;;;;11.15;38.90;100126.16;4503688;31;35221;-85
2022/01/26 05:41:30;;;;;;;;;;;;;;;11.19;38.90;100128.87;4502695;31;34128;-89
2022/01/26 05:43:58;;;;;;;;;;;;;;;10.98;39.44;100130.91;4505649;31;33439;-85
2022/01/26 05:46:40;;;;;;;;;;;;;;;10.83;39.87;100122.72;4504948;31;34290;-85
2022/01/26 05:49:08;;;;;;;;;;;;;;;10.64;40.50;100135.16;4498412;31;35058;-84
2022/01/26 05:51:35;;;;;;;;;;;;;;;10.23;42.00;100137.44;4498207;31;34227;-84
2022/01/26 05:54:04;;;;;;;;;;;;;;;10.29;41.92;100141.06;4504321;31;34144;-86
2022/01/26 05:56:31;;;;;;;;;;;;;;;10.16;42.53;100135.50;4507310;31;34962;-86
2022/01/26 05:58:58;;;;;;;;;;;;;;;10.54;41.88;100140.94;4498443;31;34442;-85
2022/01/26 06:01:26;;;;;;;;;;;;;;;10.41;42.22;100144.00;4498071;31;34556;-86
2022/01/26 06:03:53;;;;;;;;;;;;;;;10.95;41.29;100142.09;4504141;31;34397;-87
2022/01/26 06:06:21;;;;;;;;;;;;;;;10.57;42.07;100143.62;4498331;31;34948;-85
2022/01/26 06:08:48;;;;;;;;;;;;;;;11.03;41.20;100138.81;4499005;31;34072;-85
2022/01/26 06:11:15;;;;;;;;;;;;;;;10.87;41.39;100147.91;4499826;31;33343;-86
2022/01/26 06:13:42;;;;;;;;;;;;;;;11.07;41.03;100141.53;4502844;31;32685;-88
2022/01/26 06:16:10;;;;;;;;;;;;;;;10.80;41.85;100146.88;4513938;31;33901;-86
2022/01/26 06:18:37;;;;;;;;;;;;;;;10.95;41.43;100146.41;4512411;31;35281;-84
2022/01/26 06:21:04;;;;;;;;;;;;;;;11.06;41.37;100144.97;4503323;31;34808;-84
2022/01/26 06:23:31;;;;;;;;;;;;;;;11.27;41.09;100148.97;4497403;31;33002;-84
2022/01/26 06:25:59;;;;;;;;;;;;;;;10.86;42.12;100149.59;4497828;31;34384;-84
2022/01/26 06:28:27;;;;;;;;;;;;;;;11.29;41.17;100155.06;4498038;31;35232;-84
2022/01/26 06:31:00;;;;;;;;;;;;;;;11.50;40.59;100153.00;4497659;31;34331;-84
2022/01/26 06:33:28;;;;;;;;;;;;;;;11.59;40.46;100148.06;4500853;31;33548;-85
2022/01/26 06:35:57;;;;;;;;;;;;;;;10.77;42.09;100146.78;4498165;31;35643;-85
2022/01/26 06:38:24;;;;;;;;;;;;;;;10.97;41.92;100149.91;4496462;31;35285;-84
2022/01/26 06:40:52;;;;;;;;;;;;;;;10.39;43.02;100145.69;4498015;31;34242;-84
2022/01/26 06:43:21;;;;;;;;;;;;;;;10.03;44.17;100156.66;4498316;31;33205;-84
2022/01/26 06:45:58;;;;;;;;;;;;;;;9.94;44.42;100149.50;4498005;31;34100;-84
2022/01/26 06:51:00;;;;;;;;;;;;;;;9.53;45.59;100155.09;4500085;31;33994;-84
2022/01/26 06:53:28;;;;;;;;;;;;;;;9.57;45.36;100154.34;4500785;31;33511;-84
2022/01/26 06:55:56;;;;;;;;;;;;;;;8.81;47.26;100165.56;4499835;31;34285;-84
2022/01/26 06:58:24;;;;;;;;;;;;;;;8.41;48.82;100158.91;4498714;31;35352;-84
2022/01/26 07:00:51;;;;;;;;;;;;;;;8.72;48.20;100161.81;4499824;31;35638;-84
2022/01/26 07:03:18;;;;;;;;;;;;;;;8.94;47.38;100166.06;4510314;31;33082;-85
2022/01/26 07:05:46;;;;;;;;;;;;;;;9.46;46.12;100164.34;4515946;31;35350;-84
2022/01/26 07:08:14;;;;;;;;;;;;;;;8.87;47.67;100158.03;4514003;31;34568;-84
2022/01/26 07:10:44;;;;;;;;;;;;;;;9.34;46.63;100164.81;4506572;31;33865;-83
2022/01/26 07:13:11;;;;;;;;;;;;;;;9.51;46.25;100157.62;4515848;31;33837;-84
2022/01/26 07:23:47;;;;;;;;;;;;;;;9.20;47.00;100156.56;4498579;31;32808;-84
2022/01/26 07:26:14;;;;;;;;;;;;;;;9.04;47.15;100154.31;4500654;31;33956;-84
2022/01/26 07:28:43;;;;;;;;;;;;;;;8.45;48.87;100151.34;4515380;31;34254;-84
2022/01/26 07:31:10;;;;;;;;;;;;;;;8.29;49.38;100144.69;4507083;31;34907;-84
2022/01/26 07:33:38;;;;;;;;;;;;;;;8.24;49.47;100143.62;4505084;31;33557;-84
2022/01/26 07:36:06;;;;;;;;;;;;;;;8.10;49.93;100142.22;4499426;31;35267;-86
2022/01/26 07:38:33;;;;;;;;;;;;;;;7.35;51.34;100153.84;4499331;31;34112;-84
2022/01/26 07:41:00;;;;;;;;;;;;;;;6.68;54.02;100157.91;4505871;31;34094;-84
2022/01/26 07:43:28;;;;;;;;;;;;;;;7.34;51.81;100159.84;4506345;31;33371;-84
2022/01/26 07:45:57;;;;;;;;;;;;;;;7.70;51.30;100165.63;4515771;31;34346;-84
2022/01/26 07:48:25;;;;;;;;;;;;;;;7.19;52.72;100158.38;4514606;31;34331;-85
2022/01/26 07:50:54;;;;;;;;;;;;;;;7.23;52.59;100168.00;4500252;31;35227;-86
2022/01/26 07:53:22;;;;;;;;;;;;;;;6.56;54.30;100162.53;4510396;31;34313;-87
2022/01/26 07:55:49;;;;;;;;;;;;;;;6.71;54.07;100155.47;4512999;31;34007;-84
2022/01/26 07:58:18;;;;;;;;;;;;;;;6.41;54.82;100160.13;4515280;31;34435;-87
2022/01/26 08:00:45;;;;;;;;;;;;;;;6.95;53.15;100159.91;4514167;31;34016;-85
2022/01/26 08:03:13;;;;;;;;;;;;;;;5.89;56.10;100164.53;4515234;31;33176;-85
2022/01/26 08:05:41;;;;;;;;;;;;;;;5.75;56.89;100159.59;4513534;31;33126;-85
2022/01/26 08:08:08;;;;;;;;;;;;;;;4.95;59.02;100166.75;4515242;31;34509;-84
2022/01/26 08:10:35;;;;;;;;;;;;;;;5.26;58.90;100175.19;4515186;31;34286;-84
2022/01/26 08:13:03;;;;;;;;;;;;;;;5.61;57.61;100165.78;4515341;31;33544;-84
2022/01/26 08:15:30;;;;;;;;;;;;;;;6.45;55.16;100150.84;4514221;31;34186;-85
2022/01/26 08:17:58;;;;;;;;;;;;;;;5.47;57.77;100161.66;4515010;31;34226;-84
2022/01/26 08:20:25;;;;;;;;;;;;;;;5.59;57.36;100159.69;4513958;31;33932;-84
2022/01/26 08:22:55;;;;;;;;;;;;;;;6.48;54.78;100151.00;4515492;31;34125;-84
2022/01/26 08:25:23;;;;;;;;;;;;;;;6.63;54.15;100140.47;4513795;31;34334;-84
2022/01/26 08:28:07;;;;;;;;;;;;;;;5.73;56.80;100163.81;4515123;31;34136;-84
2022/01/26 08:30:38;;;;;;;;;;;;;;;6.44;54.94;100154.22;4514006;31;34851;-84
2022/01/26 08:33:06;;;;;;;;;;;;;;;6.62;54.38;100149.88;4515351;31;34201;-84
2022/01/26 08:35:33;;;;;;;;;;;;;;;6.09;56.13;100145.78;4515364;31;34753;-86
2022/01/26 08:38:01;;;;;;;;;;;;;;;5.55;57.30;100155.19;4515066;31;35359;-84
2022/01/26 08:40:28;;;;;;;;;;;;;;;6.41;55.50;100159.25;4515200;31;34149;-84
2022/01/26 08:42:55;;;;;;;;;;;;;;;7.11;53.01;100149.44;4515147;31;33407;-84
2022/01/26 08:45:24;;;;;;;;;;;;;;;6.52;54.21;100160.62;4515220;31;34901;-84
2022/01/26 08:47:51;;;;;;;;;;;;;;;7.13;52.85;100154.69;4515263;31;35477;-85
2022/01/26 08:50:18;;;;;;;;;;;;;;;6.11;55.64;100158.75;4513792;31;33735;-85
2022/01/26 08:52:47;;;;;;;;;;;;;;;6.90;53.29;100151.12;4513957;31;32748;-84
2022/01/26 08:55:14;;;;;;;;;;;;;;;7.28;52.43;100158.78;4514993;31;33754;-85
2022/01/26 08:57:41;;;;;;;;;;;;;;;6.17;55.44;100169.31;4515046;31;35021;-84
2022/01/26 09:00:09;;;;;;;;;;;;;;;7.17;52.87;100167.75;4513463;31;35030;-85
2022/01/26 09:02:37;;;;;;;;;;;;;;;6.69;54.41;100174.25;4515266;31;33551;-85
2022/01/26 09:05:06;;;;;;;;;;;;;;;6.59;54.66;100170.34;4514910;31;35009;-84
2022/01/26 09:07:34;;;;;;;;;;;;;;;6.58;54.25;100177.22;4513601;31;34518;-86
2022/01/26 09:10:02;;;;;;;;;;;;;;;6.70;54.21;100181.16;4514743;31;34337;-84
2022/01/26 09:12:32;;;;;;;;;;;;;;;6.14;55.67;100174.31;4514414;31;34536;-84
2022/01/26 09:15:05;;;;;;;;;;;;;;;6.75;53.89;100165.09;4514783;31;34615;-84
2022/01/26 09:17:34;;;;;;;;;;;;;;;6.84;53.69;100167.19;4514748;31;34111;-85
2022/01/26 09:20:03;;;;;;;;;;;;;;;6.83;53.37;100162.84;4514535;31;35224;-85
2022/01/26 09:22:30;;;;;;;;;;;;;;;6.98;52.89;100160.06;4515286;31;33355;-84
2022/01/26 09:24:58;;;;;;;;;;;;;;;6.69;53.89;100162.22;4515067;31;34791;-87
2022/01/26 09:27:25;;;;;;;;;;;;;;;6.47;55.02;100164.66;4514941;31;35266;-86
2022/01/26 09:29:52;;;;;;;;;;;;;;;6.07;55.82;100165.44;4514923;31;34956;-84
2022/01/26 09:32:21;;;;;;;;;;;;;;;6.63;54.08;100174.88;4515011;31;33503;-83
2022/01/26 09:34:48;;;;;;;;;;;;;;;6.55;54.29;100155.59;4514591;31;34047;-84
2022/01/26 09:37:16;;;;;;;;;;;;;;;6.67;54.33;100166.47;4514684;31;34093;-84
2022/01/26 09:39:45;;;;;;;;;;;;;;;7.29;52.29;100168.25;4513125;31;35093;-87
2022/01/26 09:42:12;;;;;;;;;;;;;;;7.60;51.71;100169.53;4514517;31;33073;-85
2022/01/26 09:44:41;;;;;;;;;;;;;;;7.48;51.93;100174.19;4514498;31;34100;-84
2022/01/26 09:47:08;;;;;;;;;;;;;;;7.94;50.53;100168.28;4514530;31;34005;-84
2022/01/26 09:49:36;;;;;;;;;;;;;;;7.56;51.18;100172.81;4514241;31;34186;-86
2022/01/26 09:52:07;;;;;;;;;;;;;;;7.71;50.87;100173.41;4513036;31;33221;-84
2022/01/26 09:54:34;;;;;;;;;;;;;;;7.47;51.79;100173.31;4513209;31;34792;-84
2022/01/26 09:57:22;;;;;;;;;;;;;;;7.63;51.49;100164.50;4513253;31;34141;-84
2022/01/26 09:59:49;;;;;;;;;;;;;;;8.08;50.15;100154.22;4514572;31;34225;-84
2022/01/26 10:02:26;;;;;;;;;;;;;;;8.52;48.99;100147.28;4514221;31;32596;-85
2022/01/26 10:04:55;;;;;;;;;;;;;;;8.05;50.12;100148.94;4514072;31;35024;-84
2022/01/26 10:15:43;;;;;;;;;;;;;;;7.72;50.75;100138.16;4514399;31;35025;-85
2022/01/26 10:18:13;;;;;;;;;;;;;;;6.74;53.70;100142.72;4512985;31;35190;-85
2022/01/26 10:20:47;;;;;;;;;;;;;;;6.64;53.90;100131.94;4514024;31;33898;-84
2022/01/26 10:23:18;;;;;;;;;;;;;;;7.45;52.19;100133.66;4512377;31;33514;-84
2022/01/26 10:26:06;;;;;;;;;;;;;;;8.00;50.64;100140.12;4516385;31;34030;-85
2022/01/26 10:28:40;;;;;;;;;;;;;;;7.87;51.32;100137.88;4508125;31;33862;-85
2022/01/26 10:31:18;;;;;;;;;;;;;;;6.79;53.88;100142.91;4516716;31;35082;-86
2022/01/26 10:34:06;;;;;;;;;;;;;;;7.64;51.46;100143.03;4516243;31;34326;-85
2022/01/26 10:36:35;;;;;;;;;;;;;;;8.06;50.30;100135.19;4516089;31;34019;-85
2022/01/26 10:39:05;;;;;;;;;;;;;;;8.07;49.91;100131.81;4514778;31;34810;-85
2022/01/26 10:41:33;;;;;;;;;;;;;;;7.85;50.87;100147.28;4516294;31;34915;-85
2022/01/26 10:44:02;;;;;;;;;;;;;;;8.42;49.28;100142.63;4516071;31;33497;-86
2022/01/26 10:46:32;;;;;;;;;;;;;;;6.94;52.91;100141.00;4516037;31;34310;-84
2022/01/26 10:49:18;;;;;;;;;;;;;;;7.43;51.78;100137.88;4516028;31;34337;-84
2022/01/26 10:57:08;;;;;;;;;;;;;;;6.97;52.46;100141.13;4515755;31;33813;-84
2022/01/26 10:59:40;;;;;;;;;;;;;;;7.63;51.15;100138.69;4515845;31;35261;-87
2022/01/26 11:02:08;;;;;;;;;;;;;;;8.18;49.65;100130.50;4514322;31;34780;-84
2022/01/26 11:04:36;;;;;;;;;;;;;;;8.15;49.90;100125.22;4515876;31;33335;-87
2022/01/26 11:07:04;;;;;;;;;;;;;;;9.18;47.29;100136.69;4501566;31;32504;-87
2022/01/26 11:09:33;;;;;;;;;;;;;;;9.20;46.95;100127.25;4514388;31;34114;-83
2022/01/26 11:12:04;;;;;;;;;;;;;;;8.61;48.77;100129.53;4515876;31;34260;-87
2022/01/26 11:14:57;;;;;;;;;;;;;;;8.05;50.12;100116.22;4515963;31;33486;-85
2022/01/26 11:17:44;;;;;;;;;;;;;;;7.76;50.41;100125.44;4513863;31;33999;-85
2022/01/26 11:20:17;;;;;;;;;;;;;;;7.89;49.87;100119.06;4515435;31;34894;-85
2022/01/26 11:22:51;;;;;;;;;;;;;;;7.27;51.77;100126.06;4515647;31;34740;-84
2022/01/26 11:25:19;;;;;;;;;;;;;;;7.89;50.21;100125.94;4515605;31;33568;-84
2022/01/26 11:27:46;;;;;;;;;;;;;;;7.98;50.04;100126.28;4515619;31;34221;-85
2022/01/26 11:30:26;;;;;;;;;;;;;;;7.99;50.06;100122.84;4515629;31;33936;-88
2022/01/26 11:33:00;;;;;;;;;;;;;;;7.69;51.07;100125.13;4514214;31;34018;-86
2022/01/26 11:35:32;;;;;;;;;;;;;;;8.75;48.33;100117.06;4513988;31;34061;-84
2022/01/26 11:38:08;;;;;;;;;;;;;;;7.75;50.53;100117.63;4515508;31;34155;-85
2022/01/26 11:46:24;;;;;;;;;;;;;;;7.01;52.14;100122.41;4514326;31;33624;-85
2022/01/26 11:49:10;;;;;;;;;;;;;;;8.06;50.13;100114.53;4514278;31;34823;-84
2022/01/26 11:51:39;;;;;;;;;;;;;;;7.67;50.78;100113.88;4513890;31;33887;-84
2022/01/26 11:54:11;;;;;;;;;;;;;;;9.04;47.21;100118.09;4515417;31;34418;-84
2022/01/26 11:56:38;;;;;;;;;;;;;;;9.22;47.00;100121.31;4515442;31;33259;-84
2022/01/26 11:59:15;;;;;;;;;;;;;;;9.67;45.76;100108.09;4515398;31;33741;-84
2022/01/26 12:01:45;;;;;;;;;;;;;;;8.91;47.55;100103.00;4514093;31;34591;-84
2022/01/26 12:04:16;;;;;;;;;;;;;;;8.98;47.13;100108.44;4515272;31;34764;-84
2022/01/26 12:06:50;;;;;;;;;;;;;;;9.10;46.95;100104.50;4515502;31;33316;-85
2022/01/26 12:09:17;;;;;;;;;;;;;;;9.27;46.85;100090.41;4515378;31;34289;-85
2022/01/26 12:11:51;;;;;;;;;;;;;;;8.99;47.26;100094.66;4513980;31;34836;-84
2022/01/26 12:14:23;;;;;;;;;;;;;;;8.66;48.08;100085.75;4514323;31;34334;-84
2022/01/26 12:16:54;;;;;;;;;;;;;;;9.15;46.86;100085.69;4515212;31;34264;-84
2022/01/26 12:36:28;;;;;;;;;;;;;;;9.61;45.33;100068.19;4515473;31;34866;-85
2022/01/26 12:38:51;;;;;;;;;;;;;;;8.51;47.09;100062.81;4504550;31;33591;-84
2022/01/26 12:41:31;;;;;;;;;;;;;;;9.21;45.96;100059.16;4515426;31;34947;-84
2022/01/26 12:44:09;;;;;;;;;;;;;;;8.83;47.17;100065.66;4515160;31;34355;-84
2022/01/26 12:46:37;;;;;;;;;;;;;;;9.19;46.31;100056.50;4513039;31;35328;-84
2022/01/26 12:49:14;;;;;;;;;;;;;;;8.92;46.57;100058.19;4513735;31;34230;-83
2022/01/26 12:51:42;;;;;;;;;;;;;;;9.32;45.98;100047.47;4514940;31;33718;-84
2022/01/26 12:54:10;;;;;;;;;;;;;;;8.32;47.84;100050.91;4513808;31;35281;-84
2022/01/26 12:56:37;;;;;;;;;;;;;;;8.77;46.86;100056.84;4513904;31;33871;-84
2022/01/26 12:59:12;;;;;;;;;;;;;;;9.66;45.10;100051.06;4514939;31;33513;-85
2022/01/26 13:01:40;;;;;;;;;;;;;;;9.75;44.29;100053.94;4514825;31;34342;-86
2022/01/26 13:04:09;;;;;;;;;;;;;;;9.10;46.23;100052.75;4514984;31;33855;-84
2022/01/26 13:06:37;;;;;;;;;;;;;;;8.96;46.66;100062.66;4513673;31;35109;-85
2022/01/26 13:09:13;;;;;;;;;;;;;;;8.09;48.92;100060.41;4513741;31;33487;-84
2022/01/26 13:11:41;;;;;;;;;;;;;;;8.37;48.08;100061.41;4515560;31;34959;-87
2022/01/26 13:16:43;;;;;;;;;;;;;;;8.20;48.49;100066.84;4514986;31;33682;-84
2022/01/26 13:19:32;;;;;;;;;;;;;;;7.87;48.73;100056.16;4514776;31;33893;-85
2022/01/26 13:22:23;;;;;;;;;;;;;;;8.13;48.64;100049.38;4514583;31;34219;-87
2022/01/26 13:27:27;;;;;;;;;;;;;;;9.22;45.78;100035.91;4514671;31;35010;-81
2022/01/26 13:30:13;;;;;;;;;;;;;;;8.17;48.27;100050.37;4514689;31;33375;-86
2022/01/26 13:35:44;;;;;;;;;;;;;;;8.12;48.70;100055.38;4497595;31;34055;-86
2022/01/26 13:41:06;;;;;;;;;;;;;;;9.01;46.56;100041.25;4501971;31;33327;-84
2022/01/26 14:01:48;;;;;;;;;;;;;;;8.46;48.01;100061.78;4498366;31;34048;-84
2022/01/26 14:04:17;;;;;;;;;;;;;;;8.94;46.93;100054.84;4499190;31;34857;-86
2022/01/26 14:06:44;;;;;;;;;;;;;;;8.14;48.43;100055.41;4500392;31;34488;-84
2022/01/26 14:09:12;;;;;;;;;;;;;;;8.69;47.21;100053.13;4498966;31;35099;-84
2022/01/26 14:11:39;;;;;;;;;;;;;;;7.73;49.36;100050.47;4500041;31;33627;-84
2022/01/26 14:14:09;;;;;;;;;;;;;;;8.07;48.70;100054.34;4509022;31;35153;-84
2022/01/26 14:16:40;;;;;;;;;;;;;;;8.68;47.12;100061.72;4516124;31;34242;-87
2022/01/26 14:19:27;;;;;;;;;;;;;;;7.21;50.58;100055.28;4515896;31;34063;-84
2022/01/26 14:22:46;;;;;;;;;;;;;;;8.94;46.36;100053.94;4515881;31;33439;-84
2022/01/26 14:25:05;;;;;;;;;;;;;;;9.16;45.98;100046.06;4514680;31;33746;-84
2022/01/26 14:27:41;;;;;;;;;;;;;;;8.98;46.16;100048.06;4515905;31;33895;-87
2022/01/26 15:33:10;;;;;;;;;;;;;;;10.23;42.33;100064.88;4514749;31;34259;-82
2022/01/26 15:40:24;;;;;;;;;;;;;;;9.18;45.05;100079.75;4513522;31;33725;-84
2022/01/26 15:57:16;;;;;;;;;;;;;;;10.82;41.28;100072.53;4500182;31;34153;-83
2022/01/26 16:05:12;;;;;;;;;;;;;;;11.28;39.95;100078.03;4469766;32;34481;-84
2022/01/26 16:07:48;;;;;;;;;;;;;;;10.90;40.53;100086.59;4499745;31;35175;-83
2022/01/26 16:21:26;;;;;;;;;;;;;;;11.22;40.34;100102.13;4502524;31;34966;-80
2022/01/26 17:24:37;;;;;;;;;;;;;;;9.46;44.49;100091.87;4514100;31;35102;-83
2022/01/26 18:07:02;;;;;;;;;;;;;;;10.67;41.29;100117.09;4506793;31;34922;-85
2022/01/26 18:16:38;;;;;;;;;;;;;;;11.22;40.54;100104.72;4503957;31;34412;-86
2022/01/26 18:32:59;;;;;;;;;;;;;;;9.77;43.56;100085.06;4498028;31;33777;-82
2022/01/26 18:46:53;;;;;;;;;;;;;;;9.98;43.20;100075.34;4501033;31;34172;-85
2022/01/26 18:49:19;;;;;;;;;;;;;;;10.30;42.02;100072.84;4514255;31;34377;-87
2022/01/26 18:51:55;;;;;;;;;;;;;;;10.85;40.55;100062.25;4515817;31;33806;-89
2022/01/26 18:54:24;;;;;;;;;;;;;;;10.92;40.45;100065.91;4513824;31;33273;-89
2022/01/26 18:56:52;;;;;;;;;;;;;;;11.25;39.60;100052.00;4504876;31;34230;-84
2022/01/26 18:59:20;;;;;;;;;;;;;;;11.10;39.68;100048.19;4509509;31;35168;-88
2022/01/26 19:01:47;;;;;;;;;;;;;;;11.02;39.78;100054.03;4507246;31;34404;-83
2022/01/26 19:04:31;;;;;;;;;;;;;;;10.85;39.99;100056.19;4507478;31;33268;-83
2022/01/26 19:06:58;;;;;;;;;;;;;;;10.79;40.05;100053.44;4505675;31;35029;-85
2022/01/26 19:09:28;;;;;;;;;;;;;;;10.82;39.74;100051.78;4508928;31;33893;-88
2022/01/26 19:11:56;;;;;;;;;;;;;;;11.16;38.95;100057.84;4501953;31;33875;-88
2022/01/26 19:14:27;;;;;;;;;;;;;;;10.61;39.58;100053.84;4515697;31;33048;-84
2022/01/26 19:17:02;;;;;;;;;;;;;;;10.66;39.44;100054.84;4502843;31;34921;-83
2022/01/26 19:25:21;;;;;;;;;;;;;;;11.04;38.33;100050.63;4491378;31;32884;-88
2022/01/26 19:28:02;;;;;;;;;;;;;;;11.07;38.23;100055.03;4512221;31;35150;-84
2022/01/26 19:43:55;;;;;;;;;;;;;;;10.85;38.53;100064.84;4503297;31;34208;-88
2022/01/26 19:51:43;;;;;;;;;;;;;;;11.33;37.78;100071.25;4508544;31;34486;-87
2022/01/26 19:54:11;;;;;;;;;;;;;;;11.18;37.86;100066.56;4498700;31;34316;-87
2022/01/26 19:56:38;;;;;;;;;;;;;;;10.64;39.02;100072.94;4514490;31;33638;-83
2022/01/26 19:59:06;;;;;;;;;;;;;;;10.93;38.41;100078.03;4514572;31;34087;-89